Pagrindinis puslapis
METAR-TAF:

METAR-TAF

Oro uostai :

Bogota, Kolumbija

platuma: 04-43N, ilguma: 074-09W, Aukštis: 2547 m

Dabartinis oras

Ataskaita buvo paskelbta 1 valandą ir 3 minutes, ne 03:00 UTC
Vėjas 7 kt iš Pietų
Temperatūra 15°C
Drėgmė 77%
Slėgis 1027 hPa
Matomumas 10 km arba daugiau
Mažai debesys ne aukštis 1700 ft

METAR: SKBO 170300Z 19007KT 9999 FEW017 15/11 A3032 NOSIG

Laikas: 23:03 (04:03 UTC)

Prognozė

Ataskaita buvo paskelbta 5 valandos ir 33 minutes, ne 22:30 UTC
Prognozė galioja nuo 17 metu 00 UTC su 17 metu 24 UTC
Vėjas 5 kt iš Rytų
Matomumas 10 km arba daugiau
Išsisklaidę debesys ne aukštis 2000 ft
Tapsmas
nuo 17 metu 04 UTC su 17 metu 06 UTC
Vėjas 4 kt iš Šiaurės Rytų
Tapsmas
nuo 17 metu 14 UTC su 17 metu 16 UTC
Vėjas 10 kt iš Pietryčių

TAF: SKBO 162230Z 1700/1724 10005KT 9999 SCT020 BECMG 1704/1706 04004KT BECMG 1714/1716 13010KT TX21/1718Z TN08/1711Z

Orai ataskaitas ir orų prognozės (METAR, TAF).

turimą stotys yra geltonos ir raudonos taškus žemėlapyje.

Perkelti pele per norėdami pamatyti stoties vardą.

Tada spustelėkite, norėdami matyti oro stebėjimo ir prognozės.

Norėdami pakeisti žemėlapį: spustelėkite ant žalios mygtukų su juodo kryžiaus žemyn,; žalią mygtuką su brūkšneliu, jei norite nutolinti; arba žalių rodyklių gretimoms žemėlapius.


METAR-TAF: